createdAt,value
2017-11-04T08:26:07.736Z,35.10
2017-11-04T08:28:35.243Z,35.77
2017-11-04T08:31:02.830Z,35.50
2017-11-04T08:33:30.366Z,35.47
2017-11-04T08:35:57.938Z,34.40
2017-11-04T08:38:25.482Z,36.45
2017-11-04T08:40:52.998Z,38.83
2017-11-04T08:43:20.818Z,40.30
2017-11-04T08:45:48.385Z,36.17
2017-11-04T08:48:16.764Z,35.65
2017-11-04T09:05:45.890Z,35.97
2017-11-04T09:19:34.727Z,43.00
2017-11-04T09:22:02.255Z,36.37
2017-11-04T09:39:00.253Z,43.73
2017-11-04T09:41:27.834Z,79.83
2017-11-04T09:43:55.403Z,87.17
2017-11-04T09:46:23.755Z,96.63
2017-11-04T09:48:52.097Z,88.57
2017-11-04T10:04:00.500Z,103.60
2017-11-04T10:06:28.036Z,108.53
2017-11-04T10:08:55.559Z,114.13
2017-11-04T10:11:23.102Z,116.10
2017-11-04T10:13:50.639Z,102.40
2017-11-04T10:16:18.175Z,105.40
2017-11-04T10:18:45.766Z,109.07
2017-11-04T10:21:13.308Z,105.97
2017-11-04T10:23:42.001Z,120.20
2017-11-04T10:26:09.554Z,100.47
2017-11-04T10:28:37.332Z,121.63
2017-11-04T10:31:04.911Z,115.65
2017-11-04T10:33:32.519Z,112.95
2017-11-04T10:36:00.066Z,105.60
2017-11-04T10:38:28.381Z,103.87
2017-11-04T10:40:56.539Z,118.25
2017-11-04T10:43:24.051Z,107.47
2017-11-04T10:45:51.627Z,115.00
2017-11-04T10:48:19.944Z,110.70
2017-11-04T10:50:47.462Z,106.57
2017-11-04T10:53:15.815Z,103.17
2017-11-04T10:55:43.353Z,111.63
2017-11-04T10:58:10.878Z,110.15
2017-11-04T11:00:39.218Z,99.17
2017-11-04T11:03:06.734Z,113.60
2017-11-04T11:05:34.294Z,108.00
2017-11-04T11:08:01.814Z,108.30
2017-11-04T11:10:29.367Z,111.33
2017-11-04T11:12:56.919Z,121.13
2017-11-04T11:15:24.494Z,114.77
2017-11-04T11:17:52.023Z,110.80
2017-11-04T11:20:19.574Z,111.03
2017-11-04T11:22:47.181Z,110.03
2017-11-04T11:25:15.474Z,101.30
2017-11-04T11:27:42.991Z,106.65
2017-11-04T11:30:10.558Z,99.77
2017-11-04T11:32:38.185Z,113.93
2017-11-04T11:35:05.775Z,112.25
2017-11-04T11:37:33.323Z,101.83
2017-11-04T11:40:00.830Z,100.83
2017-11-04T11:42:29.142Z,107.30
2017-11-04T11:44:56.728Z,115.03
2017-11-04T11:47:24.256Z,101.28
2017-11-04T11:49:51.814Z,110.30
2017-11-04T11:52:19.412Z,107.22
2017-11-04T12:30:48.951Z,74.23
2017-11-04T12:53:23.424Z,61.20
2017-11-04T13:42:16.081Z,41.33
2017-11-04T13:56:14.274Z,43.53
2017-11-04T13:58:42.553Z,37.93
2017-11-04T14:26:42.814Z,29.63
2017-11-04T14:29:10.326Z,35.90
2017-11-04T14:31:37.864Z,27.83
2017-11-04T14:34:06.208Z,33.93
2017-11-04T14:36:33.847Z,39.23
2017-11-04T14:39:01.435Z,26.03
2017-11-04T14:41:28.963Z,29.53
2017-11-04T14:43:56.559Z,43.97
2017-11-04T14:46:24.116Z,37.40
2017-11-04T14:48:51.654Z,38.60
2017-11-04T14:51:19.226Z,32.60
2017-11-04T14:53:46.760Z,34.53
2017-11-04T14:56:14.294Z,30.20
2017-11-04T14:58:42.664Z,41.27
2017-11-04T15:01:10.983Z,43.27
2017-11-04T15:03:38.536Z,38.10
2017-11-04T15:06:06.551Z,38.93
2017-11-04T16:39:44.007Z,26.70
2017-11-04T16:50:50.484Z,22.80
2017-11-04T17:06:05.502Z,20.63
2017-11-04T17:08:33.047Z,21.57
2017-11-04T17:11:00.563Z,22.53
2017-11-04T17:26:14.486Z,22.90
2017-11-04T17:41:46.591Z,20.50
2017-11-04T18:09:24.740Z,21.43
2017-11-04T18:24:18.762Z,17.63
2017-11-04T18:39:42.924Z,16.63
2017-11-04T18:57:34.468Z,22.53
2017-11-04T19:28:21.431Z,26.83
2017-11-04T19:45:02.745Z,29.93
2017-11-04T19:47:30.283Z,31.37
2017-11-04T20:12:12.390Z,26.90
2017-11-04T20:14:40.032Z,31.20
2017-11-04T20:44:30.099Z,22.73
2017-11-04T20:46:57.647Z,28.50
2017-11-04T20:49:26.754Z,24.90
2017-11-04T20:51:54.344Z,18.70
2017-11-04T20:54:22.646Z,23.33
2017-11-04T20:56:51.753Z,23.70
2017-11-04T20:59:19.648Z,21.80
2017-11-04T21:17:15.471Z,22.63
2017-11-04T21:20:46.896Z,22.60
2017-11-04T21:32:46.208Z,17.80
2017-11-04T21:49:41.963Z,18.40
2017-11-04T22:03:54.512Z,15.87
2017-11-04T22:06:24.427Z,17.67
2017-11-04T22:08:52.772Z,19.67
2017-11-04T22:11:23.807Z,18.03
2017-11-04T22:13:52.014Z,19.07
2017-11-04T22:18:52.817Z,18.60
2017-11-04T22:21:20.319Z,15.00
2017-11-04T22:23:48.097Z,19.23
2017-11-04T22:49:00.787Z,20.10
2017-11-04T22:51:31.213Z,16.87
2017-11-04T22:54:00.180Z,18.47
2017-11-04T22:56:27.882Z,18.00
2017-11-04T22:58:55.400Z,19.37
2017-11-04T23:01:23.062Z,19.55
2017-11-04T23:03:50.708Z,17.45
2017-11-04T23:06:19.010Z,22.30
2017-11-04T23:08:46.555Z,20.40
2017-11-04T23:11:14.138Z,18.07
2017-11-04T23:13:44.898Z,15.63
2017-11-04T23:16:12.518Z,17.73
2017-11-04T23:18:40.484Z,20.80
2017-11-04T23:21:08.048Z,17.40
2017-11-04T23:23:35.620Z,20.07
2017-11-04T23:26:03.194Z,17.03
2017-11-04T23:28:30.718Z,17.80
2017-11-04T23:30:58.256Z,15.87
2017-11-04T23:33:26.613Z,13.70
2017-11-04T23:35:55.160Z,17.40
2017-11-04T23:38:22.849Z,18.10
2017-11-04T23:40:50.852Z,14.45
2017-11-04T23:43:19.212Z,17.27
2017-11-04T23:45:47.607Z,18.37
2017-11-04T23:48:15.951Z,18.50
2017-11-04T23:50:43.502Z,14.97
2017-11-04T23:53:11.116Z,15.07
2017-11-04T23:55:40.235Z,16.10
2017-11-04T23:58:07.935Z,18.13
